sensor_id;sensor_type;location;lat;lon;timestamp;P1;durP1;ratioP1;P2;durP2;ratioP2
35418;SDS011;21525;41.240;16.500;2023-02-19T00:01:18;19.02;;;10.98;;
35418;SDS011;21525;41.240;16.500;2023-02-19T00:03:47;15.43;;;11.80;;
35418;SDS011;21525;41.240;16.500;2023-02-19T00:06:16;16.73;;;10.50;;
35418;SDS011;21525;41.240;16.500;2023-02-19T00:08:43;16.42;;;10.20;;
35418;SDS011;21525;41.240;16.500;2023-02-19T00:11:19;19.45;;;10.18;;
35418;SDS011;21525;41.240;16.500;2023-02-19T00:13:47;15.10;;;10.63;;
35418;SDS011;21525;41.240;16.500;2023-02-19T00:16:15;13.23;;;10.00;;
35418;SDS011;21525;41.240;16.500;2023-02-19T00:18:43;17.45;;;11.15;;
35418;SDS011;21525;41.240;16.500;2023-02-19T00:21:10;17.80;;;10.70;;
35418;SDS011;21525;41.240;16.500;2023-02-19T00:23:36;14.93;;;9.93;;
35418;SDS011;21525;41.240;16.500;2023-02-19T00:26:03;15.98;;;9.65;;
35418;SDS011;21525;41.240;16.500;2023-02-19T00:28:30;15.13;;;10.27;;
35418;SDS011;21525;41.240;16.500;2023-02-19T00:31:02;14.30;;;9.57;;
35418;SDS011;21525;41.240;16.500;2023-02-19T00:33:31;13.00;;;9.00;;
35418;SDS011;21525;41.240;16.500;2023-02-19T00:36:00;17.67;;;11.60;;
35418;SDS011;21525;41.240;16.500;2023-02-19T00:38:27;19.13;;;10.60;;
35418;SDS011;21525;41.240;16.500;2023-02-19T00:40:53;17.50;;;9.52;;
35418;SDS011;21525;41.240;16.500;2023-02-19T00:43:21;14.57;;;9.20;;
35418;SDS011;21525;41.240;16.500;2023-02-19T00:45:47;15.00;;;9.50;;
35418;SDS011;21525;41.240;16.500;2023-02-19T00:48:12;15.85;;;9.50;;
35418;SDS011;21525;41.240;16.500;2023-02-19T00:50:38;14.68;;;9.55;;
35418;SDS011;21525;41.240;16.500;2023-02-19T00:53:04;16.90;;;10.52;;
35418;SDS011;21525;41.240;16.500;2023-02-19T00:55:30;15.00;;;9.63;;
35418;SDS011;21525;41.240;16.500;2023-02-19T00:57:56;15.00;;;10.07;;
35418;SDS011;21525;41.240;16.500;2023-02-19T01:00:21;13.32;;;9.45;;
35418;SDS011;21525;41.240;16.500;2023-02-19T01:02:47;14.48;;;9.82;;
35418;SDS011;21525;41.240;16.500;2023-02-19T01:05:13;14.65;;;9.18;;
35418;SDS011;21525;41.240;16.500;2023-02-19T01:07:39;16.35;;;9.70;;
35418;SDS011;21525;41.240;16.500;2023-02-19T01:10:06;12.95;;;9.23;;
35418;SDS011;21525;41.240;16.500;2023-02-19T01:12:32;16.67;;;10.55;;
35418;SDS011;21525;41.240;16.500;2023-02-19T01:14:58;18.05;;;9.30;;
35418;SDS011;21525;41.240;16.500;2023-02-19T01:17:24;13.52;;;9.07;;
35418;SDS011;21525;41.240;16.500;2023-02-19T01:19:50;14.02;;;10.00;;
35418;SDS011;21525;41.240;16.500;2023-02-19T01:22:16;14.00;;;10.23;;
35418;SDS011;21525;41.240;16.500;2023-02-19T01:24:42;16.13;;;10.25;;
35418;SDS011;21525;41.240;16.500;2023-02-19T01:27:09;12.73;;;9.13;;
35418;SDS011;21525;41.240;16.500;2023-02-19T01:29:35;14.05;;;9.13;;
35418;SDS011;21525;41.240;16.500;2023-02-19T01:32:01;13.40;;;9.00;;
35418;SDS011;21525;41.240;16.500;2023-02-19T01:34:26;14.23;;;8.98;;
35418;SDS011;21525;41.240;16.500;2023-02-19T01:36:54;12.83;;;8.97;;
35418;SDS011;21525;41.240;16.500;2023-02-19T01:39:20;12.25;;;8.27;;
35418;SDS011;21525;41.240;16.500;2023-02-19T01:41:46;10.82;;;8.00;;
35418;SDS011;21525;41.240;16.500;2023-02-19T01:46:41;14.55;;;9.52;;
35418;SDS011;21525;41.240;16.500;2023-02-19T01:49:12;14.25;;;9.20;;
35418;SDS011;21525;41.240;16.500;2023-02-19T01:51:47;14.77;;;9.07;;
35418;SDS011;21525;41.240;16.500;2023-02-19T01:54:18;13.77;;;8.85;;
35418;SDS011;21525;41.240;16.500;2023-02-19T01:56:46;11.43;;;8.52;;
35418;SDS011;21525;41.240;16.500;2023-02-19T01:59:14;12.98;;;8.57;;
35418;SDS011;21525;41.240;16.500;2023-02-19T02:01:42;14.77;;;7.83;;
35418;SDS011;21525;41.240;16.500;2023-02-19T02:04:08;12.48;;;7.82;;
35418;SDS011;21525;41.240;16.500;2023-02-19T02:06:43;12.55;;;8.38;;
35418;SDS011;21525;41.240;16.500;2023-02-19T02:09:14;13.70;;;9.13;;
35418;SDS011;21525;41.240;16.500;2023-02-19T02:11:59;12.80;;;8.35;;
35418;SDS011;21525;41.240;16.500;2023-02-19T02:14:26;11.55;;;7.50;;
35418;SDS011;21525;41.240;16.500;2023-02-19T02:31:18;11.48;;;7.43;;
35418;SDS011;21525;41.240;16.500;2023-02-19T02:36:21;10.05;;;6.85;;
35418;SDS011;21525;41.240;16.500;2023-02-19T02:38:51;12.00;;;6.97;;
35418;SDS011;21525;41.240;16.500;2023-02-19T02:41:20;11.40;;;7.55;;
35418;SDS011;21525;41.240;16.500;2023-02-19T02:43:46;10.52;;;7.68;;
35418;SDS011;21525;41.240;16.500;2023-02-19T02:46:15;10.88;;;7.13;;
35418;SDS011;21525;41.240;16.500;2023-02-19T02:48:55;8.93;;;7.05;;
35418;SDS011;21525;41.240;16.500;2023-02-19T02:51:29;10.00;;;6.38;;
35418;SDS011;21525;41.240;16.500;2023-02-19T02:56:58;8.65;;;6.18;;
35418;SDS011;21525;41.240;16.500;2023-02-19T02:59:30;9.60;;;5.80;;
35418;SDS011;21525;41.240;16.500;2023-02-19T03:07:41;15.55;;;6.65;;
35418;SDS011;21525;41.240;16.500;2023-02-19T03:10:08;9.20;;;5.90;;
35418;SDS011;21525;41.240;16.500;2023-02-19T03:12:37;12.13;;;6.50;;
35418;SDS011;21525;41.240;16.500;2023-02-19T03:15:25;10.68;;;6.70;;
35418;SDS011;21525;41.240;16.500;2023-02-19T03:18:14;9.85;;;6.68;;
35418;SDS011;21525;41.240;16.500;2023-02-19T03:21:02;12.90;;;6.60;;
35418;SDS011;21525;41.240;16.500;2023-02-19T03:23:30;10.20;;;6.50;;
35418;SDS011;21525;41.240;16.500;2023-02-19T03:26:16;10.75;;;6.72;;
35418;SDS011;21525;41.240;16.500;2023-02-19T03:28:49;9.25;;;6.47;;
35418;SDS011;21525;41.240;16.500;2023-02-19T03:31:39;9.35;;;6.13;;
35418;SDS011;21525;41.240;16.500;2023-02-19T03:34:08;10.27;;;6.28;;
35418;SDS011;21525;41.240;16.500;2023-02-19T03:36:43;10.13;;;6.13;;
35418;SDS011;21525;41.240;16.500;2023-02-19T03:39:14;8.80;;;6.10;;
35418;SDS011;21525;41.240;16.500;2023-02-19T03:41:52;10.80;;;6.57;;
35418;SDS011;21525;41.240;16.500;2023-02-19T03:44:24;8.27;;;6.10;;
35418;SDS011;21525;41.240;16.500;2023-02-19T03:47:05;11.23;;;6.00;;
35418;SDS011;21525;41.240;16.500;2023-02-19T03:50:41;10.00;;;5.95;;
35418;SDS011;21525;41.240;16.500;2023-02-19T03:55:39;9.77;;;6.25;;
35418;SDS011;21525;41.240;16.500;2023-02-19T04:05:50;10.45;;;5.95;;
35418;SDS011;21525;41.240;16.500;2023-02-19T04:08:20;9.18;;;6.07;;
35418;SDS011;21525;41.240;16.500;2023-02-19T04:10:52;12.43;;;5.75;;
35418;SDS011;21525;41.240;16.500;2023-02-19T04:13:30;8.60;;;5.82;;
35418;SDS011;21525;41.240;16.500;2023-02-19T04:16:01;10.00;;;6.10;;
35418;SDS011;21525;41.240;16.500;2023-02-19T04:18:31;9.02;;;5.43;;
35418;SDS011;21525;41.240;16.500;2023-02-19T04:21:00;7.55;;;5.35;;
35418;SDS011;21525;41.240;16.500;2023-02-19T04:23:30;9.52;;;5.78;;
35418;SDS011;21525;41.240;16.500;2023-02-19T04:26:02;10.25;;;5.80;;
35418;SDS011;21525;41.240;16.500;2023-02-19T04:28:29;9.80;;;5.82;;
35418;SDS011;21525;41.240;16.500;2023-02-19T04:30:55;14.88;;;7.43;;
35418;SDS011;21525;41.240;16.500;2023-02-19T04:33:21;15.15;;;5.78;;
35418;SDS011;21525;41.240;16.500;2023-02-19T04:35:47;13.15;;;6.10;;
35418;SDS011;21525;41.240;16.500;2023-02-19T04:38:13;21.08;;;6.60;;
35418;SDS011;21525;41.240;16.500;2023-02-19T04:40:39;12.20;;;6.38;;
35418;SDS011;21525;41.240;16.500;2023-02-19T04:43:05;11.02;;;6.00;;
35418;SDS011;21525;41.240;16.500;2023-02-19T04:45:30;11.80;;;6.13;;
35418;SDS011;21525;41.240;16.500;2023-02-19T04:47:56;9.13;;;5.95;;
35418;SDS011;21525;41.240;16.500;2023-02-19T04:50:23;10.07;;;6.07;;
35418;SDS011;21525;41.240;16.500;2023-02-19T04:52:49;11.38;;;5.95;;
35418;SDS011;21525;41.240;16.500;2023-02-19T04:55:15;10.00;;;5.82;;
35418;SDS011;21525;41.240;16.500;2023-02-19T04:57:41;9.52;;;6.13;;
35418;SDS011;21525;41.240;16.500;2023-02-19T05:00:07;10.23;;;6.43;;
35418;SDS011;21525;41.240;16.500;2023-02-19T05:02:34;11.27;;;5.47;;
35418;SDS011;21525;41.240;16.500;2023-02-19T05:05:00;10.13;;;6.07;;
35418;SDS011;21525;41.240;16.500;2023-02-19T05:07:26;10.40;;;6.18;;
35418;SDS011;21525;41.240;16.500;2023-02-19T05:09:51;8.80;;;5.97;;
35418;SDS011;21525;41.240;16.500;2023-02-19T05:12:17;9.25;;;5.90;;
35418;SDS011;21525;41.240;16.500;2023-02-19T05:14:43;10.70;;;5.95;;
35418;SDS011;21525;41.240;16.500;2023-02-19T05:17:09;11.30;;;5.70;;
35418;SDS011;21525;41.240;16.500;2023-02-19T05:19:35;14.43;;;6.57;;
35418;SDS011;21525;41.240;16.500;2023-02-19T05:22:00;9.90;;;6.43;;
35418;SDS011;21525;41.240;16.500;2023-02-19T05:24:26;10.68;;;5.80;;
35418;SDS011;21525;41.240;16.500;2023-02-19T05:26:52;13.80;;;6.28;;
35418;SDS011;21525;41.240;16.500;2023-02-19T05:29:18;9.52;;;6.30;;
35418;SDS011;21525;41.240;16.500;2023-02-19T05:31:44;12.75;;;6.30;;
35418;SDS011;21525;41.240;16.500;2023-02-19T05:34:10;9.75;;;5.82;;
35418;SDS011;21525;41.240;16.500;2023-02-19T05:36:35;10.50;;;6.80;;
35418;SDS011;21525;41.240;16.500;2023-02-19T05:39:01;10.07;;;5.82;;
35418;SDS011;21525;41.240;16.500;2023-02-19T05:41:28;13.25;;;6.40;;
35418;SDS011;21525;41.240;16.500;2023-02-19T05:43:55;10.05;;;6.30;;
35418;SDS011;21525;41.240;16.500;2023-02-19T05:46:22;11.90;;;6.28;;
35418;SDS011;21525;41.240;16.500;2023-02-19T05:48:50;10.73;;;6.18;;
35418;SDS011;21525;41.240;16.500;2023-02-19T05:51:18;11.50;;;6.47;;
35418;SDS011;21525;41.240;16.500;2023-02-19T05:53:45;13.30;;;7.17;;
35418;SDS011;21525;41.240;16.500;2023-02-19T05:59:01;13.70;;;7.93;;
35418;SDS011;21525;41.240;16.500;2023-02-19T06:01:47;11.55;;;7.43;;
35418;SDS011;21525;41.240;16.500;2023-02-19T06:04:14;12.93;;;8.25;;
35418;SDS011;21525;41.240;16.500;2023-02-19T06:06:41;15.85;;;8.55;;
35418;SDS011;21525;41.240;16.500;2023-02-19T06:09:08;14.35;;;9.35;;
35418;SDS011;21525;41.240;16.500;2023-02-19T06:11:35;15.30;;;9.30;;
35418;SDS011;21525;41.240;16.500;2023-02-19T06:14:01;15.68;;;9.52;;
35418;SDS011;21525;41.240;16.500;2023-02-19T06:16:27;15.70;;;9.90;;
35418;SDS011;21525;41.240;16.500;2023-02-19T06:18:53;18.17;;;11.20;;
35418;SDS011;21525;41.240;16.500;2023-02-19T06:21:19;17.52;;;11.90;;
35418;SDS011;21525;41.240;16.500;2023-02-19T06:23:45;21.42;;;13.00;;
35418;SDS011;21525;41.240;16.500;2023-02-19T06:26:21;18.52;;;12.40;;
35418;SDS011;21525;41.240;16.500;2023-02-19T06:28:49;24.23;;;15.63;;
35418;SDS011;21525;41.240;16.500;2023-02-19T06:31:17;25.53;;;16.33;;
35418;SDS011;21525;41.240;16.500;2023-02-19T06:33:44;22.30;;;15.40;;
35418;SDS011;21525;41.240;16.500;2023-02-19T06:36:11;27.27;;;18.50;;
35418;SDS011;21525;41.240;16.500;2023-02-19T06:38:40;24.67;;;17.42;;
35418;SDS011;21525;41.240;16.500;2023-02-19T06:41:06;20.45;;;13.77;;
35418;SDS011;21525;41.240;16.500;2023-02-19T06:43:34;18.48;;;13.05;;
35418;SDS011;21525;41.240;16.500;2023-02-19T06:46:00;18.17;;;12.25;;
35418;SDS011;21525;41.240;16.500;2023-02-19T06:48:29;19.75;;;12.85;;
35418;SDS011;21525;41.240;16.500;2023-02-19T06:50:55;17.80;;;12.55;;
35418;SDS011;21525;41.240;16.500;2023-02-19T06:53:22;16.63;;;11.43;;
35418;SDS011;21525;41.240;16.500;2023-02-19T06:56:04;16.00;;;10.20;;
35418;SDS011;21525;41.240;16.500;2023-02-19T06:58:32;15.88;;;10.73;;
35418;SDS011;21525;41.240;16.500;2023-02-19T07:00:58;20.33;;;12.20;;
35418;SDS011;21525;41.240;16.500;2023-02-19T07:03:24;19.70;;;14.90;;
35418;SDS011;21525;41.240;16.500;2023-02-19T07:05:50;25.35;;;20.10;;
35418;SDS011;21525;41.240;16.500;2023-02-19T07:08:16;34.10;;;28.27;;
35418;SDS011;21525;41.240;16.500;2023-02-19T07:10:52;35.05;;;29.70;;
35418;SDS011;21525;41.240;16.500;2023-02-19T07:13:20;33.75;;;29.80;;
35418;SDS011;21525;41.240;16.500;2023-02-19T07:15:45;32.25;;;28.73;;
35418;SDS011;21525;41.240;16.500;2023-02-19T07:18:11;33.03;;;29.52;;
35418;SDS011;21525;41.240;16.500;2023-02-19T07:20:37;35.58;;;31.80;;
35418;SDS011;21525;41.240;16.500;2023-02-19T07:23:03;37.58;;;33.50;;
35418;SDS011;21525;41.240;16.500;2023-02-19T07:25:28;34.95;;;31.15;;
35418;SDS011;21525;41.240;16.500;2023-02-19T07:27:54;29.88;;;26.67;;
35418;SDS011;21525;41.240;16.500;2023-02-19T07:30:20;25.98;;;22.20;;
35418;SDS011;21525;41.240;16.500;2023-02-19T07:32:46;23.90;;;20.05;;
35418;SDS011;21525;41.240;16.500;2023-02-19T07:35:12;18.90;;;15.10;;
35418;SDS011;21525;41.240;16.500;2023-02-19T07:37:39;18.40;;;13.82;;
35418;SDS011;21525;41.240;16.500;2023-02-19T07:40:05;20.50;;;13.85;;
35418;SDS011;21525;41.240;16.500;2023-02-19T07:42:31;20.38;;;15.05;;
35418;SDS011;21525;41.240;16.500;2023-02-19T07:44:58;16.08;;;10.55;;
35418;SDS011;21525;41.240;16.500;2023-02-19T07:47:24;12.80;;;9.50;;
35418;SDS011;21525;41.240;16.500;2023-02-19T07:49:50;14.00;;;9.90;;
35418;SDS011;21525;41.240;16.500;2023-02-19T07:52:15;12.57;;;9.73;;
35418;SDS011;21525;41.240;16.500;2023-02-19T07:54:41;13.50;;;9.02;;
35418;SDS011;21525;41.240;16.500;2023-02-19T07:57:07;12.57;;;8.20;;
35418;SDS011;21525;41.240;16.500;2023-02-19T07:59:33;11.80;;;7.00;;
35418;SDS011;21525;41.240;16.500;2023-02-19T08:01:59;9.50;;;6.53;;
35418;SDS011;21525;41.240;16.500;2023-02-19T08:04:45;12.45;;;5.97;;
35418;SDS011;21525;41.240;16.500;2023-02-19T08:07:12;7.38;;;5.15;;
35418;SDS011;21525;41.240;16.500;2023-02-19T08:09:37;12.07;;;5.75;;
35418;SDS011;21525;41.240;16.500;2023-02-19T08:12:03;8.68;;;4.70;;
35418;SDS011;21525;41.240;16.500;2023-02-19T08:14:48;8.00;;;5.55;;
35418;SDS011;21525;41.240;16.500;2023-02-19T08:17:13;8.93;;;5.40;;
35418;SDS011;21525;41.240;16.500;2023-02-19T08:19:39;9.43;;;6.45;;
35418;SDS011;21525;41.240;16.500;2023-02-19T08:22:05;9.05;;;6.38;;
35418;SDS011;21525;41.240;16.500;2023-02-19T08:24:31;9.32;;;5.97;;
35418;SDS011;21525;41.240;16.500;2023-02-19T08:26:58;9.18;;;6.05;;
35418;SDS011;21525;41.240;16.500;2023-02-19T08:29:23;8.57;;;5.85;;
35418;SDS011;21525;41.240;16.500;2023-02-19T08:31:49;10.68;;;6.32;;
35418;SDS011;21525;41.240;16.500;2023-02-19T08:34:15;8.48;;;5.60;;
35418;SDS011;21525;41.240;16.500;2023-02-19T08:36:41;8.93;;;5.13;;
35418;SDS011;21525;41.240;16.500;2023-02-19T08:39:08;8.18;;;4.78;;
35418;SDS011;21525;41.240;16.500;2023-02-19T08:41:34;10.35;;;5.43;;
35418;SDS011;21525;41.240;16.500;2023-02-19T08:44:00;6.30;;;4.57;;
35418;SDS011;21525;41.240;16.500;2023-02-19T08:46:26;6.60;;;4.07;;
35418;SDS011;21525;41.240;16.500;2023-02-19T08:48:52;10.27;;;3.97;;
35418;SDS011;21525;41.240;16.500;2023-02-19T08:51:17;11.13;;;6.00;;
35418;SDS011;21525;41.240;16.500;2023-02-19T08:53:44;7.25;;;4.03;;
35418;SDS011;21525;41.240;16.500;2023-02-19T08:56:11;7.45;;;4.25;;
35418;SDS011;21525;41.240;16.500;2023-02-19T08:58:38;7.25;;;4.43;;
35418;SDS011;21525;41.240;16.500;2023-02-19T09:01:08;5.63;;;3.83;;
35418;SDS011;21525;41.240;16.500;2023-02-19T09:03:36;8.88;;;4.85;;
35418;SDS011;21525;41.240;16.500;2023-02-19T09:06:01;11.18;;;5.10;;
35418;SDS011;21525;41.240;16.500;2023-02-19T09:08:28;7.80;;;5.03;;
35418;SDS011;21525;41.240;16.500;2023-02-19T09:10:57;7.88;;;4.50;;
35418;SDS011;21525;41.240;16.500;2023-02-19T09:13:27;12.65;;;4.68;;
35418;SDS011;21525;41.240;16.500;2023-02-19T09:15:54;10.60;;;4.45;;
35418;SDS011;21525;41.240;16.500;2023-02-19T09:18:21;11.15;;;3.70;;
35418;SDS011;21525;41.240;16.500;2023-02-19T09:20:48;5.90;;;3.70;;
35418;SDS011;21525;41.240;16.500;2023-02-19T09:23:14;6.15;;;4.00;;
35418;SDS011;21525;41.240;16.500;2023-02-19T09:25:40;6.28;;;3.92;;
35418;SDS011;21525;41.240;16.500;2023-02-19T09:28:06;13.82;;;4.32;;
35418;SDS011;21525;41.240;16.500;2023-02-19T09:30:31;9.02;;;4.35;;
35418;SDS011;21525;41.240;16.500;2023-02-19T09:32:57;9.77;;;5.10;;
35418;SDS011;21525;41.240;16.500;2023-02-19T09:35:23;11.57;;;4.78;;
35418;SDS011;21525;41.240;16.500;2023-02-19T09:37:49;8.27;;;4.75;;
35418;SDS011;21525;41.240;16.500;2023-02-19T09:40:14;8.32;;;4.00;;
35418;SDS011;21525;41.240;16.500;2023-02-19T09:42:45;5.78;;;3.70;;
35418;SDS011;21525;41.240;16.500;2023-02-19T09:45:22;4.85;;;3.40;;
35418;SDS011;21525;41.240;16.500;2023-02-19T09:47:56;6.50;;;3.55;;
35418;SDS011;21525;41.240;16.500;2023-02-19T09:50:30;7.07;;;3.70;;
35418;SDS011;21525;41.240;16.500;2023-02-19T09:53:01;6.97;;;4.45;;
35418;SDS011;21525;41.240;16.500;2023-02-19T09:55:31;7.30;;;3.92;;
35418;SDS011;21525;41.240;16.500;2023-02-19T09:58:23;11.40;;;4.53;;
35418;SDS011;21525;41.240;16.500;2023-02-19T10:01:09;8.10;;;4.57;;
35418;SDS011;21525;41.240;16.500;2023-02-19T10:03:37;5.65;;;3.92;;
35418;SDS011;21525;41.240;16.500;2023-02-19T10:06:19;7.13;;;4.05;;
35418;SDS011;21525;41.240;16.500;2023-02-19T10:08:49;5.75;;;3.90;;
35418;SDS011;21525;41.240;16.500;2023-02-19T10:11:17;10.13;;;4.30;;
35418;SDS011;21525;41.240;16.500;2023-02-19T10:16:23;11.15;;;6.47;;
35418;SDS011;21525;41.240;16.500;2023-02-19T10:18:50;11.60;;;5.85;;
35418;SDS011;21525;41.240;16.500;2023-02-19T10:21:18;9.65;;;6.15;;
35418;SDS011;21525;41.240;16.500;2023-02-19T10:24:07;11.95;;;6.45;;
35418;SDS011;21525;41.240;16.500;2023-02-19T10:26:33;11.25;;;7.18;;
35418;SDS011;21525;41.240;16.500;2023-02-19T10:29:01;10.40;;;6.05;;
35418;SDS011;21525;41.240;16.500;2023-02-19T10:31:31;7.78;;;5.63;;
35418;SDS011;21525;41.240;16.500;2023-02-19T10:33:58;13.85;;;6.40;;
35418;SDS011;21525;41.240;16.500;2023-02-19T10:36:32;11.07;;;6.53;;
35418;SDS011;21525;41.240;16.500;2023-02-19T10:39:20;11.88;;;5.97;;
35418;SDS011;21525;41.240;16.500;2023-02-19T10:42:01;8.45;;;6.43;;
35418;SDS011;21525;41.240;16.500;2023-02-19T10:44:27;13.02;;;6.95;;
35418;SDS011;21525;41.240;16.500;2023-02-19T10:47:01;11.95;;;7.70;;
35418;SDS011;21525;41.240;16.500;2023-02-19T10:49:27;9.68;;;6.07;;
35418;SDS011;21525;41.240;16.500;2023-02-19T10:51:57;11.38;;;6.60;;
35418;SDS011;21525;41.240;16.500;2023-02-19T10:54:28;10.13;;;6.32;;
35418;SDS011;21525;41.240;16.500;2023-02-19T11:02:39;9.65;;;7.43;;
35418;SDS011;21525;41.240;16.500;2023-02-19T11:12:51;12.68;;;7.40;;
35418;SDS011;21525;41.240;16.500;2023-02-19T11:15:24;12.50;;;7.82;;
35418;SDS011;21525;41.240;16.500;2023-02-19T11:20:55;13.98;;;9.20;;
35418;SDS011;21525;41.240;16.500;2023-02-19T11:26:00;12.82;;;8.05;;
35418;SDS011;21525;41.240;16.500;2023-02-19T11:28:36;11.77;;;8.30;;
35418;SDS011;21525;41.240;16.500;2023-02-19T11:34:02;15.25;;;9.50;;
35418;SDS011;21525;41.240;16.500;2023-02-19T11:36:32;11.40;;;8.30;;
35418;SDS011;21525;41.240;16.500;2023-02-19T11:39:02;14.35;;;8.20;;
35418;SDS011;21525;41.240;16.500;2023-02-19T11:48:12;22.30;;;11.70;;
35418;SDS011;21525;41.240;16.500;2023-02-19T11:55:56;17.13;;;11.35;;
35418;SDS011;21525;41.240;16.500;2023-02-19T12:11:53;20.65;;;11.18;;
35418;SDS011;21525;41.240;16.500;2023-02-19T12:22:31;17.10;;;11.75;;
35418;SDS011;21525;41.240;16.500;2023-02-19T12:27:54;23.17;;;14.23;;
35418;SDS011;21525;41.240;16.500;2023-02-19T12:35:56;15.48;;;10.82;;
35418;SDS011;21525;41.240;16.500;2023-02-19T12:38:31;17.55;;;12.07;;
35418;SDS011;21525;41.240;16.500;2023-02-19T12:44:24;18.30;;;12.63;;
35418;SDS011;21525;41.240;16.500;2023-02-19T12:46:37;19.88;;;10.95;;
35418;SDS011;21525;41.240;16.500;2023-02-19T12:49:09;15.45;;;11.20;;
35418;SDS011;21525;41.240;16.500;2023-02-19T12:51:59;17.75;;;11.68;;
35418;SDS011;21525;41.240;16.500;2023-02-19T12:54:51;17.58;;;11.48;;
35418;SDS011;21525;41.240;16.500;2023-02-19T12:57:23;19.23;;;11.98;;
35418;SDS011;21525;41.240;16.500;2023-02-19T13:05:04;16.48;;;11.27;;
35418;SDS011;21525;41.240;16.500;2023-02-19T13:10:26;15.90;;;12.15;;
35418;SDS011;21525;41.240;16.500;2023-02-19T13:12:57;17.77;;;11.45;;
35418;SDS011;21525;41.240;16.500;2023-02-19T13:15:30;17.15;;;11.93;;
35418;SDS011;21525;41.240;16.500;2023-02-19T13:18:01;16.17;;;11.75;;
35418;SDS011;21525;41.240;16.500;2023-02-19T13:20:30;15.82;;;11.35;;
35418;SDS011;21525;41.240;16.500;2023-02-19T13:25:58;19.92;;;13.20;;
35418;SDS011;21525;41.240;16.500;2023-02-19T13:33:47;22.45;;;14.57;;
35418;SDS011;21525;41.240;16.500;2023-02-19T13:36:22;20.23;;;14.20;;
35418;SDS011;21525;41.240;16.500;2023-02-19T13:38:51;16.75;;;12.40;;
35418;SDS011;21525;41.240;16.500;2023-02-19T13:41:18;16.85;;;12.10;;
35418;SDS011;21525;41.240;16.500;2023-02-19T13:44:33;16.08;;;12.88;;
35418;SDS011;21525;41.240;16.500;2023-02-19T13:46:44;18.58;;;13.18;;
35418;SDS011;21525;41.240;16.500;2023-02-19T13:59:46;17.30;;;13.50;;
35418;SDS011;21525;41.240;16.500;2023-02-19T14:14:42;17.42;;;12.60;;
35418;SDS011;21525;41.240;16.500;2023-02-19T14:25:26;18.38;;;13.57;;
35418;SDS011;21525;41.240;16.500;2023-02-19T14:30:21;21.83;;;14.43;;
35418;SDS011;21525;41.240;16.500;2023-02-19T14:32:48;18.05;;;14.55;;
35418;SDS011;21525;41.240;16.500;2023-02-19T14:35:18;21.08;;;14.82;;
35418;SDS011;21525;41.240;16.500;2023-02-19T14:37:46;18.33;;;14.15;;
35418;SDS011;21525;41.240;16.500;2023-02-19T14:40:26;18.58;;;13.68;;
35418;SDS011;21525;41.240;16.500;2023-02-19T14:42:58;16.52;;;13.13;;
35418;SDS011;21525;41.240;16.500;2023-02-19T14:45:25;20.50;;;13.05;;
35418;SDS011;21525;41.240;16.500;2023-02-19T14:47:53;18.08;;;13.15;;
35418;SDS011;21525;41.240;16.500;2023-02-19T14:50:29;20.00;;;14.02;;
35418;SDS011;21525;41.240;16.500;2023-02-19T14:52:59;18.67;;;13.90;;
35418;SDS011;21525;41.240;16.500;2023-02-19T14:55:29;18.42;;;14.07;;
35418;SDS011;21525;41.240;16.500;2023-02-19T14:57:58;17.92;;;12.05;;
35418;SDS011;21525;41.240;16.500;2023-02-19T15:00:49;18.70;;;12.95;;
35418;SDS011;21525;41.240;16.500;2023-02-19T15:03:25;16.70;;;12.45;;
35418;SDS011;21525;41.240;16.500;2023-02-19T15:06:00;17.95;;;12.95;;
35418;SDS011;21525;41.240;16.500;2023-02-19T15:08:28;17.73;;;13.38;;
35418;SDS011;21525;41.240;16.500;2023-02-19T15:10:57;19.60;;;13.05;;
35418;SDS011;21525;41.240;16.500;2023-02-19T15:13:27;15.85;;;12.98;;
35418;SDS011;21525;41.240;16.500;2023-02-19T15:15:54;19.33;;;13.73;;
35418;SDS011;21525;41.240;16.500;2023-02-19T15:18:22;20.55;;;14.95;;
35418;SDS011;21525;41.240;16.500;2023-02-19T15:20:49;19.67;;;12.93;;
35418;SDS011;21525;41.240;16.500;2023-02-19T15:23:22;19.70;;;13.82;;
35418;SDS011;21525;41.240;16.500;2023-02-19T15:25:49;19.17;;;13.20;;
35418;SDS011;21525;41.240;16.500;2023-02-19T15:28:18;18.42;;;13.13;;
35418;SDS011;21525;41.240;16.500;2023-02-19T15:30:50;16.50;;;11.90;;
35418;SDS011;21525;41.240;16.500;2023-02-19T15:33:32;16.40;;;12.32;;
35418;SDS011;21525;41.240;16.500;2023-02-19T15:35:59;19.40;;;12.27;;
35418;SDS011;21525;41.240;16.500;2023-02-19T15:38:29;19.75;;;12.68;;
35418;SDS011;21525;41.240;16.500;2023-02-19T15:40:55;17.88;;;13.20;;
35418;SDS011;21525;41.240;16.500;2023-02-19T15:45:55;16.05;;;12.32;;
35418;SDS011;21525;41.240;16.500;2023-02-19T15:48:26;17.65;;;12.30;;
35418;SDS011;21525;41.240;16.500;2023-02-19T15:51:01;21.25;;;11.23;;
35418;SDS011;21525;41.240;16.500;2023-02-19T15:53:34;16.30;;;11.80;;
35418;SDS011;21525;41.240;16.500;2023-02-19T15:58:45;17.00;;;12.05;;
35418;SDS011;21525;41.240;16.500;2023-02-19T16:03:50;16.50;;;11.63;;
35418;SDS011;21525;41.240;16.500;2023-02-19T16:06:20;16.25;;;11.98;;
35418;SDS011;21525;41.240;16.500;2023-02-19T16:13:51;18.05;;;12.90;;
35418;SDS011;21525;41.240;16.500;2023-02-19T16:16:27;19.60;;;13.15;;
35418;SDS011;21525;41.240;16.500;2023-02-19T16:19:00;20.00;;;14.25;;
35418;SDS011;21525;41.240;16.500;2023-02-19T16:21:26;18.45;;;11.98;;
35418;SDS011;21525;41.240;16.500;2023-02-19T16:24:01;19.70;;;12.63;;
35418;SDS011;21525;41.240;16.500;2023-02-19T16:26:40;19.92;;;14.70;;
35418;SDS011;21525;41.240;16.500;2023-02-19T16:29:26;16.60;;;11.98;;
35418;SDS011;21525;41.240;16.500;2023-02-19T16:31:55;24.13;;;15.50;;
35418;SDS011;21525;41.240;16.500;2023-02-19T16:36:59;23.95;;;14.48;;
35418;SDS011;21525;41.240;16.500;2023-02-19T16:39:26;19.13;;;13.85;;
35418;SDS011;21525;41.240;16.500;2023-02-19T16:46:56;17.45;;;12.55;;
35418;SDS011;21525;41.240;16.500;2023-02-19T16:49:26;16.75;;;11.63;;
35418;SDS011;21525;41.240;16.500;2023-02-19T16:51:52;18.80;;;13.80;;
35418;SDS011;21525;41.240;16.500;2023-02-19T16:54:19;23.50;;;15.55;;
35418;SDS011;21525;41.240;16.500;2023-02-19T16:56:45;27.52;;;19.30;;
35418;SDS011;21525;41.240;16.500;2023-02-19T16:59:10;26.52;;;17.45;;
35418;SDS011;21525;41.240;16.500;2023-02-19T17:01:36;21.02;;;14.80;;
35418;SDS011;21525;41.240;16.500;2023-02-19T17:04:03;24.77;;;17.10;;
35418;SDS011;21525;41.240;16.500;2023-02-19T17:06:34;19.25;;;14.57;;
35418;SDS011;21525;41.240;16.500;2023-02-19T17:09:03;28.83;;;19.58;;
35418;SDS011;21525;41.240;16.500;2023-02-19T17:11:33;24.88;;;17.83;;
35418;SDS011;21525;41.240;16.500;2023-02-19T17:13:59;24.52;;;16.77;;
35418;SDS011;21525;41.240;16.500;2023-02-19T17:16:27;21.17;;;15.20;;
35418;SDS011;21525;41.240;16.500;2023-02-19T17:18:56;26.60;;;16.20;;
35418;SDS011;21525;41.240;16.500;2023-02-19T17:21:24;21.13;;;15.40;;
35418;SDS011;21525;41.240;16.500;2023-02-19T17:23:54;26.83;;;16.20;;
35418;SDS011;21525;41.240;16.500;2023-02-19T17:26:28;22.23;;;15.50;;
35418;SDS011;21525;41.240;16.500;2023-02-19T17:28:55;21.17;;;15.93;;
35418;SDS011;21525;41.240;16.500;2023-02-19T17:31:22;26.40;;;17.13;;
35418;SDS011;21525;41.240;16.500;2023-02-19T17:33:48;230.85;;;171.10;;